Grosse Pointe Park, Michigan
Current Conditions -  °F | °C
As of 9:53 PM on Sunday 21 Dec 2014 (Local Time) from KDET Reporting Station
Haze Haze  
Wind Chill: 24°   Ceiling: Unl
Heat Index: 29°   Visibility: 6mi
Dew Point: 22°   Wind: 5mph
Humidity: 75%   Direction: 140°SE
Pressure: 30.23"   Gusts: NA
Location:  42.4104°N, 82.941°W
Report Text: KDET 220253Z 14004KT 6SM HZ CLR M02/M06 A3023 RMK AO2 SLP243 T10171056 58006 $
Loading
Personal Weather Stations






























Interactive Weather Map New forecast layout! Learn more

10-Day Weather Forecast

Advertisements
Track Severe Weather on mobile